Time;durP1;ratioP1;P1;durP2;ratioP2;P2;SDS_P1;SDS_P2;PMS_P1;PMS_P2;Temp;Humidity;BMP_temperature;BMP_pressure;BME280_temperature;BME280_humidity;BME280_pressure;Samples;Min_cycle;Max_cycle;Signal;HPM_P1;HPM_P2
2021/03/07 13:43:53;;;;;;;42.15;20.30;;;;;;;;;;6027905;23;20291;-73
2021/03/07 13:46:31;;;;;;;111.05;56.92;;;;;;;;;;5036096;28;20037;-75
2021/03/07 13:48:57;;;;;;;20.35;11.23;;;;;;;;;;5036357;28;20132;-70
2021/03/07 13:51:29;;;;;;;23.15;13.88;;;;;;;;;;5037232;28;20072;-74
2021/03/07 13:53:58;;;;;;;21.40;12.50;;;;;;;;;;5037461;28;20112;-73
2021/03/07 13:56:27;;;;;;;25.48;13.88;;;;;;;;;;5036911;28;20061;-73
2021/03/07 13:58:59;;;;;;;18.55;10.18;;;;;;;;;;5036662;28;20043;-73
2021/03/07 14:01:28;;;;;;;18.92;9.10;;;;;;;;;;5037294;28;20548;-72
2021/03/07 14:03:57;;;;;;;14.90;9.27;;;;;;;;;;5036378;28;20035;-71
2021/03/07 14:06:26;;;;;;;19.25;8.43;;;;;;;;;;5030972;28;20547;-74
2021/03/07 14:08:52;;;;;;;13.80;7.35;;;;;;;;;;5025968;28;20057;-70
2021/03/07 14:11:21;;;;;;;11.82;7.28;;;;;;;;;;5016516;28;20049;-73
2021/03/07 14:13:50;;;;;;;18.90;9.82;;;;;;;;;;5017023;28;20038;-71
2021/03/07 14:16:16;;;;;;;18.30;8.82;;;;;;;;;;5017126;28;20033;-70
2021/03/07 14:18:42;;;;;;;18.35;9.73;;;;;;;;;;5017057;28;20083;-72
2021/03/07 14:21:08;;;;;;;21.35;10.50;;;;;;;;;;5016839;28;20041;-72
2021/03/07 14:23:35;;;;;;;31.92;13.13;;;;;;;;;;5016715;28;20041;-73
2021/03/07 14:26:01;;;;;;;15.93;8.15;;;;;;;;;;5017392;28;20030;-71
2021/03/07 14:28:27;;;;;;;10.48;6.90;;;;;;;;;;5016739;28;20146;-71
2021/03/07 14:30:53;;;;;;;16.58;8.13;;;;;;;;;;5016542;28;20139;-71
2021/03/07 14:33:19;;;;;;;24.00;10.68;;;;;;;;;;5016683;28;20473;-75
2021/03/07 14:35:47;;;;;;;31.45;17.10;;;;;;;;;;5016630;28;20358;-70
2021/03/07 14:38:13;;;;;;;27.10;13.32;;;;;;;;;;5016624;28;20033;-72
2021/03/07 14:40:39;;;;;;;27.48;13.27;;;;;;;;;;5016261;28;20441;-70
2021/03/07 14:43:05;;;;;;;32.10;14.45;;;;;;;;;;5016499;28;20025;-72
2021/03/07 14:45:38;;;;;;;27.33;12.63;;;;;;;;;;5002430;28;20125;-72
2021/03/07 14:48:04;;;;;;;16.33;8.93;;;;;;;;;;4996479;28;20450;-71
2021/03/07 14:50:34;;;;;;;40.05;18.92;;;;;;;;;;4997300;28;20077;-72
2021/03/07 14:53:06;;;;;;;18.92;10.93;;;;;;;;;;4996973;28;20133;-72
2021/03/07 14:55:33;;;;;;;43.05;16.65;;;;;;;;;;4997216;28;20032;-71
2021/03/07 14:58:07;;;;;;;107.70;37.63;;;;;;;;;;4996217;28;20029;-72
2021/03/07 15:00:35;;;;;;;39.72;23.30;;;;;;;;;;4996799;28;20030;-72
2021/03/07 15:03:07;;;;;;;29.67;13.27;;;;;;;;;;4996817;28;20041;-72
2021/03/07 15:05:33;;;;;;;16.08;8.52;;;;;;;;;;4996531;28;20030;-71
2021/03/07 15:07:59;;;;;;;16.52;7.57;;;;;;;;;;4996264;28;20048;-70
2021/03/07 15:10:25;;;;;;;19.60;9.60;;;;;;;;;;4996404;28;20466;-71
2021/03/07 15:12:51;;;;;;;15.68;8.63;;;;;;;;;;4996393;28;20034;-74
2021/03/07 15:15:20;;;;;;;16.25;8.07;;;;;;;;;;4996286;28;20026;-72
2021/03/07 15:17:46;;;;;;;15.20;7.88;;;;;;;;;;4996222;28;20049;-71
2021/03/07 15:20:13;;;;;;;13.90;7.45;;;;;;;;;;4996187;28;20092;-73
2021/03/07 15:22:39;;;;;;;19.60;8.13;;;;;;;;;;4996222;28;20022;-72
2021/03/07 15:25:09;;;;;;;14.45;6.68;;;;;;;;;;4996334;28;20037;-72
2021/03/07 15:27:35;;;;;;;16.92;9.85;;;;;;;;;;4996227;28;20033;-72
2021/03/07 15:30:08;;;;;;;20.58;9.35;;;;;;;;;;4996026;28;20382;-71
2021/03/07 15:32:35;;;;;;;20.40;13.00;;;;;;;;;;5013466;28;20175;-72
2021/03/07 15:35:05;;;;;;;16.95;9.32;;;;;;;;;;4996758;28;20038;-71
2021/03/07 15:37:32;;;;;;;15.55;8.55;;;;;;;;;;5005902;28;20496;-73
2021/03/07 15:39:58;;;;;;;36.22;16.83;;;;;;;;;;5007267;28;20064;-70
2021/03/07 15:42:27;;;;;;;19.98;9.38;;;;;;;;;;5012791;28;20021;-69
2021/03/07 15:44:53;;;;;;;19.90;9.57;;;;;;;;;;5013203;28;20046;-75
2021/03/07 15:47:19;;;;;;;21.50;10.57;;;;;;;;;;5013356;28;20033;-71
2021/03/07 15:49:45;;;;;;;18.48;9.30;;;;;;;;;;5013191;28;20036;-71
2021/03/07 15:52:11;;;;;;;17.33;8.82;;;;;;;;;;5013926;28;20029;-71
2021/03/07 15:54:37;;;;;;;13.40;6.88;;;;;;;;;;5013693;28;20033;-72
2021/03/07 15:57:06;;;;;;;16.05;9.07;;;;;;;;;;5013319;28;20048;-71
2021/03/07 15:59:38;;;;;;;16.60;8.60;;;;;;;;;;5012957;28;20075;-71
2021/03/07 16:02:04;;;;;;;26.85;17.27;;;;;;;;;;5014390;28;20033;-74
2021/03/07 16:04:30;;;;;;;33.17;21.60;;;;;;;;;;5012953;28;20037;-73
2021/03/07 16:06:57;;;;;;;22.33;12.70;;;;;;;;;;5010170;28;20030;-73
2021/03/07 16:09:25;;;;;;;49.33;26.30;;;;;;;;;;5011329;28;20036;-73
2021/03/07 16:11:55;;;;;;;97.10;53.90;;;;;;;;;;5012625;28;20033;-71
2021/03/07 16:14:23;;;;;;;62.20;30.02;;;;;;;;;;5011880;28;20028;-71
2021/03/07 16:16:50;;;;;;;28.25;16.95;;;;;;;;;;5011189;28;20040;-71
2021/03/07 16:19:16;;;;;;;22.83;12.77;;;;;;;;;;5013982;28;20454;-72
2021/03/07 16:21:46;;;;;;;60.13;34.33;;;;;;;;;;5012277;28;20128;-73
2021/03/07 16:24:15;;;;;;;112.28;52.20;;;;;;;;;;5011851;28;20037;-71
2021/03/07 16:26:44;;;;;;;47.72;25.50;;;;;;;;;;5011987;28;20484;-70
2021/03/07 16:29:13;;;;;;;59.55;31.75;;;;;;;;;;5009984;28;20087;-71
2021/03/07 16:31:45;;;;;;;29.55;15.32;;;;;;;;;;5011392;28;20025;-71
2021/03/07 16:34:18;;;;;;;25.02;14.00;;;;;;;;;;5012416;28;20053;-73
2021/03/07 16:36:50;;;;;;;28.25;13.70;;;;;;;;;;5010894;28;20474;-71
2021/03/07 16:39:16;;;;;;;28.42;13.38;;;;;;;;;;5012046;28;20033;-72
2021/03/07 16:41:45;;;;;;;25.30;12.25;;;;;;;;;;5012803;28;20037;-72
2021/03/07 16:44:11;;;;;;;37.55;16.05;;;;;;;;;;5014893;28;20496;-74
2021/03/07 16:46:37;;;;;;;36.95;17.67;;;;;;;;;;5030382;28;20026;-71
2021/03/07 16:49:10;;;;;;;53.75;23.90;;;;;;;;;;5035477;28;20029;-74
2021/03/07 16:51:36;;;;;;;65.05;30.45;;;;;;;;;;5035027;28;20028;-72
2021/03/07 16:54:04;;;;;;;25.17;12.75;;;;;;;;;;5036123;28;20044;-71
2021/03/07 16:56:30;;;;;;;34.00;16.38;;;;;;;;;;5034555;28;20022;-73
2021/03/07 16:58:56;;;;;;;27.50;11.70;;;;;;;;;;5037457;28;20025;-73
2021/03/07 17:01:23;;;;;;;41.47;19.30;;;;;;;;;;5033885;28;20041;-74
2021/03/07 17:03:52;;;;;;;38.67;16.17;;;;;;;;;;5031893;28;20432;-75
2021/03/07 17:06:22;;;;;;;28.20;12.60;;;;;;;;;;5036391;28;20036;-74
2021/03/07 17:08:51;;;;;;;22.65;10.88;;;;;;;;;;5053916;28;20076;-72
2021/03/07 17:11:22;;;;;;;26.42;10.32;;;;;;;;;;5036719;28;20094;-71
2021/03/07 17:14:03;;;;;;;31.52;12.70;;;;;;;;;;5034916;28;20037;-71
2021/03/07 17:16:32;;;;;;;19.98;11.35;;;;;;;;;;5037110;28;20484;-72
2021/03/07 17:19:02;;;;;;;31.67;14.15;;;;;;;;;;5035221;28;20025;-71
2021/03/07 17:21:31;;;;;;;40.90;19.27;;;;;;;;;;5037171;28;20197;-71
2021/03/07 17:24:00;;;;;;;53.13;23.05;;;;;;;;;;5033911;28;20286;-72
2021/03/07 17:26:33;;;;;;;47.95;22.10;;;;;;;;;;5034349;28;20069;-72
2021/03/07 17:29:05;;;;;;;44.17;20.67;;;;;;;;;;5036016;28;20044;-73
2021/03/07 17:31:41;;;;;;;32.72;18.15;;;;;;;;;;5023504;28;20112;-71
2021/03/07 17:34:19;;;;;;;52.88;21.73;;;;;;;;;;5024487;28;20030;-72
2021/03/07 17:36:45;;;;;;;44.88;20.83;;;;;;;;;;5054885;28;20095;-71
2021/03/07 17:39:17;;;;;;;47.88;20.23;;;;;;;;;;5037179;28;20047;-70
2021/03/07 17:41:43;;;;;;;60.20;23.55;;;;;;;;;;5037561;28;20040;-74
2021/03/07 17:44:09;;;;;;;57.47;28.17;;;;;;;;;;5016867;28;20051;-72
2021/03/07 17:46:35;;;;;;;47.03;23.75;;;;;;;;;;5037522;28;20028;-72
2021/03/07 17:49:02;;;;;;;24.33;12.57;;;;;;;;;;5037290;28;20025;-73
2021/03/07 17:51:31;;;;;;;24.38;11.75;;;;;;;;;;5036873;28;20043;-71
2021/03/07 17:53:57;;;;;;;21.85;11.90;;;;;;;;;;5033367;28;20037;-73
2021/03/07 17:56:25;;;;;;;18.77;11.10;;;;;;;;;;5015955;28;20037;-71
2021/03/07 17:58:51;;;;;;;41.08;17.80;;;;;;;;;;5009904;28;20037;-71
2021/03/07 18:01:23;;;;;;;22.90;12.77;;;;;;;;;;5016611;28;20041;-73
2021/03/07 18:03:52;;;;;;;34.13;17.98;;;;;;;;;;5006048;28;20022;-73
2021/03/07 18:06:21;;;;;;;35.30;18.60;;;;;;;;;;4997583;28;20544;-74
2021/03/07 18:08:50;;;;;;;32.55;15.60;;;;;;;;;;4997706;28;20041;-71
2021/03/07 18:11:19;;;;;;;40.65;16.67;;;;;;;;;;4997415;28;20034;-71
2021/03/07 18:13:48;;;;;;;49.90;20.92;;;;;;;;;;4997312;28;20132;-72
2021/03/07 18:16:14;;;;;;;82.70;34.90;;;;;;;;;;4996945;28;20029;-72
2021/03/07 18:18:40;;;;;;;39.15;17.38;;;;;;;;;;4996730;28;20029;-71
2021/03/07 18:21:07;;;;;;;37.45;16.13;;;;;;;;;;4996627;28;20038;-70
2021/03/07 18:23:33;;;;;;;69.53;27.65;;;;;;;;;;4996665;28;20191;-71
2021/03/07 18:25:59;;;;;;;68.07;22.83;;;;;;;;;;4997122;28;20026;-70
2021/03/07 18:28:25;;;;;;;149.90;55.67;;;;;;;;;;4996661;28;20072;-69
2021/03/07 18:30:51;;;;;;;107.32;41.50;;;;;;;;;;4996183;28;20382;-70
2021/03/07 18:33:20;;;;;;;105.40;41.15;;;;;;;;;;4996080;28;20149;-73
2021/03/07 18:35:46;;;;;;;88.57;33.13;;;;;;;;;;5020862;28;20025;-72
2021/03/07 18:38:14;;;;;;;91.38;37.05;;;;;;;;;;5018309;28;20030;-71
2021/03/07 18:40:43;;;;;;;122.47;47.75;;;;;;;;;;5030761;28;20045;-68
2021/03/07 18:43:12;;;;;;;75.35;28.58;;;;;;;;;;5015182;28;20029;-69
2021/03/07 18:45:42;;;;;;;67.07;25.88;;;;;;;;;;5017554;28;20047;-70
2021/03/07 18:48:09;;;;;;;76.82;30.73;;;;;;;;;;5016767;28;20033;-69
2021/03/07 18:50:36;;;;;;;60.60;27.83;;;;;;;;;;5011082;28;20032;-72
2021/03/07 18:53:06;;;;;;;62.25;25.85;;;;;;;;;;5015644;28;20024;-72
2021/03/07 18:55:32;;;;;;;69.18;30.15;;;;;;;;;;5013413;28;20025;-69
2021/03/07 18:57:59;;;;;;;65.18;28.95;;;;;;;;;;5016675;28;20032;-69
2021/03/07 19:00:28;;;;;;;55.33;26.08;;;;;;;;;;5015939;28;20038;-71
2021/03/07 19:02:58;;;;;;;72.25;30.92;;;;;;;;;;5011877;28;20056;-70
2021/03/07 19:05:27;;;;;;;52.85;24.10;;;;;;;;;;5011333;28;20052;-70
2021/03/07 19:07:59;;;;;;;74.43;27.50;;;;;;;;;;5013574;28;20091;-70
2021/03/07 19:10:28;;;;;;;60.08;22.98;;;;;;;;;;5009850;28;20057;-69
2021/03/07 19:12:54;;;;;;;54.40;22.25;;;;;;;;;;5013910;28;20029;-70
2021/03/07 19:15:20;;;;;;;103.30;32.85;;;;;;;;;;5017232;28;20451;-70
2021/03/07 19:17:49;;;;;;;125.28;39.45;;;;;;;;;;5016148;28;20383;-71
2021/03/07 19:20:15;;;;;;;296.60;74.97;;;;;;;;;;5013138;28;20025;-69
2021/03/07 19:22:44;;;;;;;80.38;28.77;;;;;;;;;;5016815;28;20094;-68
2021/03/07 19:25:11;;;;;;;63.92;26.67;;;;;;;;;;5016552;28;20026;-70
2021/03/07 19:27:37;;;;;;;74.93;33.17;;;;;;;;;;5007882;28;20426;-69
2021/03/07 19:30:04;;;;;;;92.13;42.50;;;;;;;;;;5005321;28;20037;-69
2021/03/07 19:32:30;;;;;;;80.88;40.67;;;;;;;;;;4995635;28;20029;-69
2021/03/07 19:35:03;;;;;;;108.57;50.80;;;;;;;;;;5006683;28;20033;-69
2021/03/07 19:37:29;;;;;;;39.92;22.00;;;;;;;;;;5014250;28;20028;-69
2021/03/07 19:39:55;;;;;;;36.03;19.25;;;;;;;;;;5011817;28;20036;-71
2021/03/07 19:42:20;;;;;;;36.78;17.33;;;;;;;;;;5035540;28;20119;-70
2021/03/07 19:44:47;;;;;;;34.70;14.25;;;;;;;;;;5020918;28;20056;-71
2021/03/07 19:47:16;;;;;;;76.60;30.65;;;;;;;;;;5036481;28;20025;-70
2021/03/07 19:49:42;;;;;;;39.22;16.58;;;;;;;;;;5031970;28;20461;-70
2021/03/07 19:52:08;;;;;;;38.65;16.55;;;;;;;;;;5032049;28;20371;-73
2021/03/07 19:54:37;;;;;;;74.07;28.55;;;;;;;;;;5033633;28;20378;-70
2021/03/07 19:57:07;;;;;;;41.87;18.97;;;;;;;;;;5034495;28;20069;-72
2021/03/07 19:59:33;;;;;;;84.35;34.58;;;;;;;;;;5031409;28;20029;-73
2021/03/07 20:01:59;;;;;;;55.38;22.67;;;;;;;;;;5033574;28;20041;-74
2021/03/07 20:04:28;;;;;;;41.58;17.55;;;;;;;;;;5051150;28;20021;-73
2021/03/07 20:07:02;;;;;;;46.78;19.25;;;;;;;;;;5029967;28;20068;-73
2021/03/07 20:09:32;;;;;;;85.68;30.90;;;;;;;;;;5028604;28;20381;-72
2021/03/07 20:11:58;;;;;;;71.85;29.20;;;;;;;;;;5031602;28;20500;-73
2021/03/07 20:14:27;;;;;;;88.05;33.30;;;;;;;;;;5033416;28;20070;-73
2021/03/07 20:16:53;;;;;;;118.00;41.90;;;;;;;;;;5028276;28;20546;-73
2021/03/07 20:19:25;;;;;;;121.82;42.67;;;;;;;;;;5032905;28;20112;-74
2021/03/07 20:21:51;;;;;;;105.88;38.00;;;;;;;;;;5029475;28;20059;-73
2021/03/07 20:24:17;;;;;;;121.07;41.05;;;;;;;;;;5030095;28;20033;-72
2021/03/07 20:26:46;;;;;;;102.50;37.13;;;;;;;;;;5033545;28;20631;-74
2021/03/07 20:29:16;;;;;;;95.97;36.08;;;;;;;;;;5033632;28;20037;-72
2021/03/07 20:31:42;;;;;;;100.63;34.83;;;;;;;;;;5031434;28;20107;-73
2021/03/07 20:34:08;;;;;;;77.75;28.65;;;;;;;;;;5033403;28;20033;-71
2021/03/07 20:36:34;;;;;;;67.75;24.90;;;;;;;;;;5031805;28;20029;-72
2021/03/07 20:39:00;;;;;;;61.40;26.05;;;;;;;;;;5033053;28;20024;-72
2021/03/07 20:41:29;;;;;;;67.30;27.42;;;;;;;;;;5029866;28;20116;-73
2021/03/07 20:43:59;;;;;;;53.42;20.17;;;;;;;;;;5032958;28;20029;-72
2021/03/07 20:46:26;;;;;;;57.25;24.52;;;;;;;;;;5013790;28;20136;-71
2021/03/07 20:48:55;;;;;;;60.13;24.60;;;;;;;;;;5013080;28;20117;-73
2021/03/07 20:51:21;;;;;;;70.35;28.67;;;;;;;;;;5013036;28;20017;-72
2021/03/07 20:53:47;;;;;;;52.80;20.63;;;;;;;;;;5013231;28;20037;-70
2021/03/07 20:56:14;;;;;;;47.60;19.90;;;;;;;;;;5013261;28;20027;-71
2021/03/07 20:58:40;;;;;;;46.38;19.75;;;;;;;;;;5009747;28;20017;-71
2021/03/07 21:01:09;;;;;;;50.33;21.67;;;;;;;;;;5030196;28;20045;-71
2021/03/07 21:03:35;;;;;;;54.08;22.48;;;;;;;;;;5014221;28;20041;-70
2021/03/07 21:06:01;;;;;;;39.42;17.38;;;;;;;;;;5013826;28;20127;-70
2021/03/07 21:08:33;;;;;;;30.88;14.43;;;;;;;;;;5009315;28;20026;-71
2021/03/07 21:11:02;;;;;;;34.13;17.48;;;;;;;;;;5002942;28;20076;-71
2021/03/07 21:13:29;;;;;;;30.13;14.43;;;;;;;;;;4994767;28;20026;-71
2021/03/07 21:15:56;;;;;;;31.00;14.48;;;;;;;;;;4994146;28;20116;-71
2021/03/07 21:18:22;;;;;;;27.65;13.35;;;;;;;;;;4994821;28;20398;-71
2021/03/07 21:20:50;;;;;;;28.90;15.27;;;;;;;;;;4994548;28;20042;-71
2021/03/07 21:23:16;;;;;;;32.47;14.65;;;;;;;;;;4994856;28;20463;-71
2021/03/07 21:25:43;;;;;;;25.63;13.02;;;;;;;;;;4994206;28;20030;-72
2021/03/07 21:28:09;;;;;;;35.72;14.93;;;;;;;;;;4993999;28;20033;-71
2021/03/07 21:30:38;;;;;;;26.17;12.73;;;;;;;;;;4994035;28;20058;-71
2021/03/07 21:33:04;;;;;;;25.75;12.27;;;;;;;;;;4994543;28;20026;-71
2021/03/07 21:35:31;;;;;;;23.38;11.82;;;;;;;;;;5002195;28;20036;-71
2021/03/07 21:37:58;;;;;;;21.45;11.85;;;;;;;;;;5016909;28;20029;-71
2021/03/07 21:40:24;;;;;;;25.25;11.20;;;;;;;;;;5016855;28;20145;-71
2021/03/07 21:42:53;;;;;;;29.30;12.85;;;;;;;;;;5016178;28;20040;-72
2021/03/07 21:45:22;;;;;;;22.00;10.85;;;;;;;;;;5022351;28;20429;-73
2021/03/07 21:47:51;;;;;;;26.65;11.65;;;;;;;;;;5032178;28;20087;-72
2021/03/07 21:50:21;;;;;;;25.63;12.65;;;;;;;;;;5032510;28;20037;-71
2021/03/07 21:52:49;;;;;;;27.67;12.88;;;;;;;;;;5032225;28;20112;-71
2021/03/07 21:55:15;;;;;;;26.30;12.73;;;;;;;;;;5031959;28;20030;-70
2021/03/07 21:57:41;;;;;;;23.58;11.50;;;;;;;;;;5032044;28;20460;-71
2021/03/07 22:00:11;;;;;;;26.92;13.02;;;;;;;;;;5032192;28;20060;-70
2021/03/07 22:02:39;;;;;;;24.52;12.55;;;;;;;;;;5032105;28;20090;-70
2021/03/07 22:05:05;;;;;;;26.80;12.05;;;;;;;;;;5033180;28;20381;-71
2021/03/07 22:07:31;;;;;;;41.08;15.88;;;;;;;;;;5031651;28;20485;-71
2021/03/07 22:09:57;;;;;;;31.88;12.55;;;;;;;;;;5031014;28;20128;-71
2021/03/07 22:12:23;;;;;;;32.17;14.05;;;;;;;;;;5029944;28;20029;-71
2021/03/07 22:14:52;;;;;;;28.98;13.23;;;;;;;;;;5032415;28;20030;-72
2021/03/07 22:17:18;;;;;;;38.75;14.38;;;;;;;;;;5033096;28;20108;-71
2021/03/07 22:19:45;;;;;;;32.67;13.85;;;;;;;;;;5032523;28;20025;-72
